sensor_id;sensor_type;location;lat;lon;timestamp;P1;durP1;ratioP1;P2;durP2;ratioP2
8323;SDS011;4199;50.802;6.772;2023-05-15T00:01:24;14.83;;;12.00;;
8323;SDS011;4199;50.802;6.772;2023-05-15T00:03:50;15.67;;;12.23;;
8323;SDS011;4199;50.802;6.772;2023-05-15T00:06:17;13.50;;;12.10;;
8323;SDS011;4199;50.802;6.772;2023-05-15T00:08:43;16.87;;;12.93;;
8323;SDS011;4199;50.802;6.772;2023-05-15T00:11:10;16.97;;;14.03;;
8323;SDS011;4199;50.802;6.772;2023-05-15T00:13:36;16.03;;;14.43;;
8323;SDS011;4199;50.802;6.772;2023-05-15T00:16:06;17.23;;;14.57;;
8323;SDS011;4199;50.802;6.772;2023-05-15T00:18:34;17.17;;;15.40;;
8323;SDS011;4199;50.802;6.772;2023-05-15T00:21:00;20.33;;;16.63;;
8323;SDS011;4199;50.802;6.772;2023-05-15T00:23:26;20.57;;;16.93;;
8323;SDS011;4199;50.802;6.772;2023-05-15T00:25:53;24.07;;;18.47;;
8323;SDS011;4199;50.802;6.772;2023-05-15T00:28:19;22.07;;;19.13;;
8323;SDS011;4199;50.802;6.772;2023-05-15T00:30:45;24.47;;;19.37;;
8323;SDS011;4199;50.802;6.772;2023-05-15T00:33:11;27.10;;;20.93;;
8323;SDS011;4199;50.802;6.772;2023-05-15T00:35:38;28.57;;;21.57;;
8323;SDS011;4199;50.802;6.772;2023-05-15T00:38:05;28.63;;;22.83;;
8323;SDS011;4199;50.802;6.772;2023-05-15T00:40:31;33.17;;;22.97;;
8323;SDS011;4199;50.802;6.772;2023-05-15T00:42:58;32.60;;;24.00;;
8323;SDS011;4199;50.802;6.772;2023-05-15T00:45:25;28.80;;;22.97;;
8323;SDS011;4199;50.802;6.772;2023-05-15T00:47:52;33.17;;;24.17;;
8323;SDS011;4199;50.802;6.772;2023-05-15T00:50:19;34.80;;;25.10;;
8323;SDS011;4199;50.802;6.772;2023-05-15T00:52:46;34.53;;;26.00;;
8323;SDS011;4199;50.802;6.772;2023-05-15T00:55:12;35.73;;;25.77;;
8323;SDS011;4199;50.802;6.772;2023-05-15T00:57:39;36.80;;;25.07;;
8323;SDS011;4199;50.802;6.772;2023-05-15T01:00:06;34.97;;;25.73;;
8323;SDS011;4199;50.802;6.772;2023-05-15T01:02:35;34.17;;;26.17;;
8323;SDS011;4199;50.802;6.772;2023-05-15T01:05:02;34.07;;;26.40;;
8323;SDS011;4199;50.802;6.772;2023-05-15T01:07:29;39.17;;;27.50;;
8323;SDS011;4199;50.802;6.772;2023-05-15T01:09:58;36.57;;;26.83;;
8323;SDS011;4199;50.802;6.772;2023-05-15T01:12:24;40.17;;;28.17;;
8323;SDS011;4199;50.802;6.772;2023-05-15T01:14:52;35.97;;;28.60;;
8323;SDS011;4199;50.802;6.772;2023-05-15T01:17:18;43.90;;;28.43;;
8323;SDS011;4199;50.802;6.772;2023-05-15T01:19:45;38.70;;;29.00;;
8323;SDS011;4199;50.802;6.772;2023-05-15T01:22:23;38.43;;;29.07;;
8323;SDS011;4199;50.802;6.772;2023-05-15T01:27:44;43.43;;;31.13;;
8323;SDS011;4199;50.802;6.772;2023-05-15T01:30:14;46.40;;;32.03;;
8323;SDS011;4199;50.802;6.772;2023-05-15T01:32:48;43.10;;;30.47;;
8323;SDS011;4199;50.802;6.772;2023-05-15T01:35:20;44.57;;;31.17;;
8323;SDS011;4199;50.802;6.772;2023-05-15T01:37:53;44.70;;;31.17;;
8323;SDS011;4199;50.802;6.772;2023-05-15T01:40:20;42.10;;;31.67;;
8323;SDS011;4199;50.802;6.772;2023-05-15T01:42:55;40.03;;;31.57;;
8323;SDS011;4199;50.802;6.772;2023-05-15T01:45:25;39.10;;;31.53;;
8323;SDS011;4199;50.802;6.772;2023-05-15T01:47:53;41.80;;;30.87;;
8323;SDS011;4199;50.802;6.772;2023-05-15T01:50:21;46.80;;;31.00;;
8323;SDS011;4199;50.802;6.772;2023-05-15T01:52:49;45.10;;;31.40;;
8323;SDS011;4199;50.802;6.772;2023-05-15T01:55:15;41.80;;;31.57;;
8323;SDS011;4199;50.802;6.772;2023-05-15T01:57:42;44.50;;;31.90;;
8323;SDS011;4199;50.802;6.772;2023-05-15T02:00:10;46.63;;;33.30;;
8323;SDS011;4199;50.802;6.772;2023-05-15T02:02:37;45.33;;;32.53;;
8323;SDS011;4199;50.802;6.772;2023-05-15T02:05:03;46.50;;;34.20;;
8323;SDS011;4199;50.802;6.772;2023-05-15T02:07:30;45.80;;;33.83;;
8323;SDS011;4199;50.802;6.772;2023-05-15T02:09:57;44.57;;;33.47;;
8323;SDS011;4199;50.802;6.772;2023-05-15T02:12:24;44.57;;;33.30;;
8323;SDS011;4199;50.802;6.772;2023-05-15T02:14:51;50.80;;;35.13;;
8323;SDS011;4199;50.802;6.772;2023-05-15T02:17:18;44.77;;;33.63;;
8323;SDS011;4199;50.802;6.772;2023-05-15T02:19:45;49.17;;;33.30;;
8323;SDS011;4199;50.802;6.772;2023-05-15T02:22:11;52.27;;;33.27;;
8323;SDS011;4199;50.802;6.772;2023-05-15T02:24:38;48.27;;;32.73;;
8323;SDS011;4199;50.802;6.772;2023-05-15T02:32:28;46.07;;;31.83;;
8323;SDS011;4199;50.802;6.772;2023-05-15T02:35:02;43.50;;;30.53;;
8323;SDS011;4199;50.802;6.772;2023-05-15T02:37:33;43.47;;;30.50;;
8323;SDS011;4199;50.802;6.772;2023-05-15T02:40:00;39.33;;;30.57;;
8323;SDS011;4199;50.802;6.772;2023-05-15T02:42:31;44.63;;;30.27;;
8323;SDS011;4199;50.802;6.772;2023-05-15T02:44:58;43.30;;;30.03;;
8323;SDS011;4199;50.802;6.772;2023-05-15T02:47:25;46.60;;;31.00;;
8323;SDS011;4199;50.802;6.772;2023-05-15T02:49:51;41.40;;;30.40;;
8323;SDS011;4199;50.802;6.772;2023-05-15T02:52:18;42.60;;;31.13;;
8323;SDS011;4199;50.802;6.772;2023-05-15T02:54:44;42.20;;;30.13;;
8323;SDS011;4199;50.802;6.772;2023-05-15T02:57:10;44.63;;;30.93;;
8323;SDS011;4199;50.802;6.772;2023-05-15T02:59:37;48.50;;;30.50;;
8323;SDS011;4199;50.802;6.772;2023-05-15T03:02:03;43.50;;;31.50;;
8323;SDS011;4199;50.802;6.772;2023-05-15T03:04:30;44.47;;;31.27;;
8323;SDS011;4199;50.802;6.772;2023-05-15T03:06:56;45.07;;;31.37;;
8323;SDS011;4199;50.802;6.772;2023-05-15T03:09:23;45.93;;;30.97;;
8323;SDS011;4199;50.802;6.772;2023-05-15T03:11:50;41.27;;;31.30;;
8323;SDS011;4199;50.802;6.772;2023-05-15T03:14:16;44.90;;;31.37;;
8323;SDS011;4199;50.802;6.772;2023-05-15T03:16:43;47.03;;;31.47;;
8323;SDS011;4199;50.802;6.772;2023-05-15T03:19:09;43.63;;;31.33;;
8323;SDS011;4199;50.802;6.772;2023-05-15T03:21:36;48.37;;;31.70;;
8323;SDS011;4199;50.802;6.772;2023-05-15T03:24:02;41.87;;;30.13;;
8323;SDS011;4199;50.802;6.772;2023-05-15T03:26:28;44.87;;;31.93;;
8323;SDS011;4199;50.802;6.772;2023-05-15T03:28:56;43.60;;;30.23;;
8323;SDS011;4199;50.802;6.772;2023-05-15T03:31:23;44.03;;;30.90;;
8323;SDS011;4199;50.802;6.772;2023-05-15T03:33:49;43.13;;;32.40;;
8323;SDS011;4199;50.802;6.772;2023-05-15T03:36:16;43.93;;;31.97;;
8323;SDS011;4199;50.802;6.772;2023-05-15T03:38:43;44.27;;;31.47;;
8323;SDS011;4199;50.802;6.772;2023-05-15T03:41:09;40.30;;;30.87;;
8323;SDS011;4199;50.802;6.772;2023-05-15T03:43:35;45.40;;;31.63;;
8323;SDS011;4199;50.802;6.772;2023-05-15T03:46:02;43.20;;;30.43;;
8323;SDS011;4199;50.802;6.772;2023-05-15T03:48:28;48.33;;;31.90;;
8323;SDS011;4199;50.802;6.772;2023-05-15T03:50:54;41.30;;;30.60;;
8323;SDS011;4199;50.802;6.772;2023-05-15T03:53:21;46.87;;;31.83;;
8323;SDS011;4199;50.802;6.772;2023-05-15T03:55:47;44.40;;;30.07;;
8323;SDS011;4199;50.802;6.772;2023-05-15T03:58:14;47.63;;;31.70;;
8323;SDS011;4199;50.802;6.772;2023-05-15T04:00:40;45.53;;;31.93;;
8323;SDS011;4199;50.802;6.772;2023-05-15T04:03:06;47.97;;;32.50;;
8323;SDS011;4199;50.802;6.772;2023-05-15T04:05:33;46.20;;;31.60;;
8323;SDS011;4199;50.802;6.772;2023-05-15T04:08:00;48.20;;;34.80;;
8323;SDS011;4199;50.802;6.772;2023-05-15T04:10:26;50.90;;;35.17;;
8323;SDS011;4199;50.802;6.772;2023-05-15T04:12:52;53.53;;;36.17;;
8323;SDS011;4199;50.802;6.772;2023-05-15T04:15:23;54.83;;;37.50;;
8323;SDS011;4199;50.802;6.772;2023-05-15T04:17:50;55.47;;;38.50;;
8323;SDS011;4199;50.802;6.772;2023-05-15T04:20:18;59.27;;;39.57;;
8323;SDS011;4199;50.802;6.772;2023-05-15T04:22:44;57.60;;;38.93;;
8323;SDS011;4199;50.802;6.772;2023-05-15T04:25:11;60.93;;;40.20;;
8323;SDS011;4199;50.802;6.772;2023-05-15T04:27:38;59.53;;;40.20;;
8323;SDS011;4199;50.802;6.772;2023-05-15T04:30:05;60.50;;;40.13;;
8323;SDS011;4199;50.802;6.772;2023-05-15T04:32:32;58.70;;;38.83;;
8323;SDS011;4199;50.802;6.772;2023-05-15T04:35:02;53.80;;;39.37;;
8323;SDS011;4199;50.802;6.772;2023-05-15T04:37:35;58.77;;;38.53;;
8323;SDS011;4199;50.802;6.772;2023-05-15T04:40:02;53.73;;;37.73;;
8323;SDS011;4199;50.802;6.772;2023-05-15T04:42:29;51.53;;;37.17;;
8323;SDS011;4199;50.802;6.772;2023-05-15T04:44:55;57.63;;;38.03;;
8323;SDS011;4199;50.802;6.772;2023-05-15T04:47:22;53.07;;;37.00;;
8323;SDS011;4199;50.802;6.772;2023-05-15T04:49:48;51.60;;;36.43;;
8323;SDS011;4199;50.802;6.772;2023-05-15T04:52:15;53.33;;;37.07;;
8323;SDS011;4199;50.802;6.772;2023-05-15T04:54:41;49.23;;;36.67;;
8323;SDS011;4199;50.802;6.772;2023-05-15T04:57:08;50.20;;;36.67;;
8323;SDS011;4199;50.802;6.772;2023-05-15T04:59:35;50.23;;;35.40;;
8323;SDS011;4199;50.802;6.772;2023-05-15T05:02:01;52.00;;;37.17;;
8323;SDS011;4199;50.802;6.772;2023-05-15T05:04:27;50.70;;;35.30;;
8323;SDS011;4199;50.802;6.772;2023-05-15T05:06:54;53.20;;;36.27;;
8323;SDS011;4199;50.802;6.772;2023-05-15T05:09:20;49.73;;;35.23;;
8323;SDS011;4199;50.802;6.772;2023-05-15T05:11:46;48.33;;;34.97;;
8323;SDS011;4199;50.802;6.772;2023-05-15T05:14:13;46.37;;;34.17;;
8323;SDS011;4199;50.802;6.772;2023-05-15T05:16:40;46.03;;;34.87;;
8323;SDS011;4199;50.802;6.772;2023-05-15T05:19:06;48.70;;;34.10;;
8323;SDS011;4199;50.802;6.772;2023-05-15T05:21:33;48.30;;;34.03;;
8323;SDS011;4199;50.802;6.772;2023-05-15T05:23:59;43.63;;;32.03;;
8323;SDS011;4199;50.802;6.772;2023-05-15T05:26:26;44.17;;;32.53;;
8323;SDS011;4199;50.802;6.772;2023-05-15T05:28:52;41.90;;;31.80;;
8323;SDS011;4199;50.802;6.772;2023-05-15T05:31:19;47.30;;;33.27;;
8323;SDS011;4199;50.802;6.772;2023-05-15T05:33:45;46.83;;;32.90;;
8323;SDS011;4199;50.802;6.772;2023-05-15T05:36:12;48.27;;;33.50;;
8323;SDS011;4199;50.802;6.772;2023-05-15T05:38:38;50.23;;;32.67;;
8323;SDS011;4199;50.802;6.772;2023-05-15T05:41:04;46.33;;;32.07;;
8323;SDS011;4199;50.802;6.772;2023-05-15T05:43:31;58.00;;;41.27;;
8323;SDS011;4199;50.802;6.772;2023-05-15T05:45:57;45.30;;;33.17;;
8323;SDS011;4199;50.802;6.772;2023-05-15T05:48:23;46.50;;;32.33;;
8323;SDS011;4199;50.802;6.772;2023-05-15T05:50:51;48.37;;;33.73;;
8323;SDS011;4199;50.802;6.772;2023-05-15T05:53:18;48.93;;;34.20;;
8323;SDS011;4199;50.802;6.772;2023-05-15T05:55:44;44.57;;;31.80;;
8323;SDS011;4199;50.802;6.772;2023-05-15T05:58:11;44.07;;;31.83;;
8323;SDS011;4199;50.802;6.772;2023-05-15T06:00:49;43.30;;;31.73;;
8323;SDS011;4199;50.802;6.772;2023-05-15T06:03:16;43.97;;;31.83;;
8323;SDS011;4199;50.802;6.772;2023-05-15T06:05:42;45.07;;;32.07;;
8323;SDS011;4199;50.802;6.772;2023-05-15T06:08:09;44.20;;;31.43;;
8323;SDS011;4199;50.802;6.772;2023-05-15T06:10:35;53.60;;;41.63;;
8323;SDS011;4199;50.802;6.772;2023-05-15T06:13:01;43.43;;;32.73;;
8323;SDS011;4199;50.802;6.772;2023-05-15T06:15:28;44.87;;;32.10;;
8323;SDS011;4199;50.802;6.772;2023-05-15T06:17:54;41.33;;;30.60;;
8323;SDS011;4199;50.802;6.772;2023-05-15T06:20:20;39.63;;;30.17;;
8323;SDS011;4199;50.802;6.772;2023-05-15T06:22:48;41.17;;;30.63;;
8323;SDS011;4199;50.802;6.772;2023-05-15T06:25:14;46.10;;;32.87;;
8323;SDS011;4199;50.802;6.772;2023-05-15T06:27:41;42.10;;;32.60;;
8323;SDS011;4199;50.802;6.772;2023-05-15T06:30:07;47.00;;;33.77;;
8323;SDS011;4199;50.802;6.772;2023-05-15T06:32:34;47.03;;;33.20;;
8323;SDS011;4199;50.802;6.772;2023-05-15T06:35:01;46.10;;;34.13;;
8323;SDS011;4199;50.802;6.772;2023-05-15T06:37:27;46.53;;;34.50;;
8323;SDS011;4199;50.802;6.772;2023-05-15T06:39:54;48.77;;;34.67;;
8323;SDS011;4199;50.802;6.772;2023-05-15T06:42:21;59.63;;;43.03;;
8323;SDS011;4199;50.802;6.772;2023-05-15T06:44:48;50.07;;;35.87;;
8323;SDS011;4199;50.802;6.772;2023-05-15T06:47:17;49.17;;;36.00;;
8323;SDS011;4199;50.802;6.772;2023-05-15T06:49:43;48.93;;;35.77;;
8323;SDS011;4199;50.802;6.772;2023-05-15T06:52:10;53.07;;;37.47;;
8323;SDS011;4199;50.802;6.772;2023-05-15T06:54:36;58.43;;;38.20;;
8323;SDS011;4199;50.802;6.772;2023-05-15T06:57:03;48.07;;;34.73;;
8323;SDS011;4199;50.802;6.772;2023-05-15T06:59:32;49.93;;;34.50;;
8323;SDS011;4199;50.802;6.772;2023-05-15T07:02:01;47.70;;;34.10;;
8323;SDS011;4199;50.802;6.772;2023-05-15T07:04:28;49.03;;;34.80;;
8323;SDS011;4199;50.802;6.772;2023-05-15T07:06:56;46.07;;;34.00;;
8323;SDS011;4199;50.802;6.772;2023-05-15T07:09:23;46.67;;;33.33;;
8323;SDS011;4199;50.802;6.772;2023-05-15T07:11:49;58.03;;;42.80;;
8323;SDS011;4199;50.802;6.772;2023-05-15T07:14:15;55.17;;;39.20;;
8323;SDS011;4199;50.802;6.772;2023-05-15T07:16:41;50.17;;;35.20;;
8323;SDS011;4199;50.802;6.772;2023-05-15T07:19:08;46.90;;;35.00;;
8323;SDS011;4199;50.802;6.772;2023-05-15T07:21:34;51.17;;;33.70;;
8323;SDS011;4199;50.802;6.772;2023-05-15T07:24:01;47.00;;;33.47;;
8323;SDS011;4199;50.802;6.772;2023-05-15T07:26:29;48.90;;;32.87;;
8323;SDS011;4199;50.802;6.772;2023-05-15T07:29:01;48.40;;;33.77;;
8323;SDS011;4199;50.802;6.772;2023-05-15T07:31:29;45.63;;;30.80;;
8323;SDS011;4199;50.802;6.772;2023-05-15T07:33:57;43.70;;;30.47;;
8323;SDS011;4199;50.802;6.772;2023-05-15T07:36:24;42.37;;;29.43;;
8323;SDS011;4199;50.802;6.772;2023-05-15T07:38:50;41.17;;;29.63;;
8323;SDS011;4199;50.802;6.772;2023-05-15T07:41:17;40.87;;;29.50;;
8323;SDS011;4199;50.802;6.772;2023-05-15T07:43:43;42.13;;;28.17;;
8323;SDS011;4199;50.802;6.772;2023-05-15T07:46:09;38.00;;;28.40;;
8323;SDS011;4199;50.802;6.772;2023-05-15T07:48:36;39.30;;;29.13;;
8323;SDS011;4199;50.802;6.772;2023-05-15T07:51:02;39.90;;;29.10;;
8323;SDS011;4199;50.802;6.772;2023-05-15T07:53:29;48.87;;;34.77;;
8323;SDS011;4199;50.802;6.772;2023-05-15T07:55:56;41.90;;;30.13;;
8323;SDS011;4199;50.802;6.772;2023-05-15T07:58:22;39.43;;;28.43;;
8323;SDS011;4199;50.802;6.772;2023-05-15T08:00:48;37.60;;;28.63;;
8323;SDS011;4199;50.802;6.772;2023-05-15T08:03:15;41.73;;;27.40;;
8323;SDS011;4199;50.802;6.772;2023-05-15T08:05:42;36.13;;;27.37;;
8323;SDS011;4199;50.802;6.772;2023-05-15T08:08:08;37.53;;;27.23;;
8323;SDS011;4199;50.802;6.772;2023-05-15T08:10:34;36.77;;;26.77;;
8323;SDS011;4199;50.802;6.772;2023-05-15T08:13:01;38.20;;;27.70;;
8323;SDS011;4199;50.802;6.772;2023-05-15T08:15:27;37.20;;;27.00;;
8323;SDS011;4199;50.802;6.772;2023-05-15T08:17:54;37.50;;;28.67;;
8323;SDS011;4199;50.802;6.772;2023-05-15T08:20:20;39.17;;;28.77;;
8323;SDS011;4199;50.802;6.772;2023-05-15T08:22:47;37.80;;;28.20;;
8323;SDS011;4199;50.802;6.772;2023-05-15T08:25:13;39.53;;;28.20;;
8323;SDS011;4199;50.802;6.772;2023-05-15T08:27:39;36.73;;;28.17;;
8323;SDS011;4199;50.802;6.772;2023-05-15T08:30:06;36.30;;;28.90;;
8323;SDS011;4199;50.802;6.772;2023-05-15T08:32:32;35.20;;;27.87;;
8323;SDS011;4199;50.802;6.772;2023-05-15T08:34:58;37.53;;;28.03;;
8323;SDS011;4199;50.802;6.772;2023-05-15T08:37:24;42.23;;;28.33;;
8323;SDS011;4199;50.802;6.772;2023-05-15T08:39:51;36.10;;;28.40;;
8323;SDS011;4199;50.802;6.772;2023-05-15T08:44:43;32.10;;;25.17;;
8323;SDS011;4199;50.802;6.772;2023-05-15T08:47:10;33.40;;;25.03;;
8323;SDS011;4199;50.802;6.772;2023-05-15T08:49:41;30.63;;;22.30;;
8323;SDS011;4199;50.802;6.772;2023-05-15T08:52:08;29.83;;;24.00;;
8323;SDS011;4199;50.802;6.772;2023-05-15T08:54:35;29.07;;;24.87;;
8323;SDS011;4199;50.802;6.772;2023-05-15T08:57:02;29.97;;;24.97;;
8323;SDS011;4199;50.802;6.772;2023-05-15T08:59:28;28.87;;;23.77;;
8323;SDS011;4199;50.802;6.772;2023-05-15T09:01:54;29.93;;;22.57;;
8323;SDS011;4199;50.802;6.772;2023-05-15T09:04:22;28.37;;;22.13;;
8323;SDS011;4199;50.802;6.772;2023-05-15T09:06:48;30.60;;;22.73;;
8323;SDS011;4199;50.802;6.772;2023-05-15T09:09:14;34.40;;;23.63;;
8323;SDS011;4199;50.802;6.772;2023-05-15T09:11:44;32.50;;;25.13;;
8323;SDS011;4199;50.802;6.772;2023-05-15T09:14:11;26.93;;;22.60;;
8323;SDS011;4199;50.802;6.772;2023-05-15T09:16:38;30.83;;;24.70;;
8323;SDS011;4199;50.802;6.772;2023-05-15T09:19:05;31.60;;;24.07;;
8323;SDS011;4199;50.802;6.772;2023-05-15T09:21:32;27.47;;;21.67;;
8323;SDS011;4199;50.802;6.772;2023-05-15T09:24:15;25.20;;;21.40;;
8323;SDS011;4199;50.802;6.772;2023-05-15T09:26:45;23.57;;;21.03;;
8323;SDS011;4199;50.802;6.772;2023-05-15T09:29:15;25.50;;;22.20;;
8323;SDS011;4199;50.802;6.772;2023-05-15T09:31:47;28.47;;;23.03;;
8323;SDS011;4199;50.802;6.772;2023-05-15T09:34:13;28.87;;;23.47;;
8323;SDS011;4199;50.802;6.772;2023-05-15T09:36:43;30.33;;;22.50;;
8323;SDS011;4199;50.802;6.772;2023-05-15T09:39:12;29.27;;;22.47;;
8323;SDS011;4199;50.802;6.772;2023-05-15T09:41:40;29.93;;;23.53;;
8323;SDS011;4199;50.802;6.772;2023-05-15T09:44:06;27.17;;;22.70;;
8323;SDS011;4199;50.802;6.772;2023-05-15T09:46:46;29.83;;;21.50;;
8323;SDS011;4199;50.802;6.772;2023-05-15T09:49:13;25.57;;;21.33;;
8323;SDS011;4199;50.802;6.772;2023-05-15T09:51:41;26.83;;;18.80;;
8323;SDS011;4199;50.802;6.772;2023-05-15T09:54:12;20.33;;;16.60;;
8323;SDS011;4199;50.802;6.772;2023-05-15T09:56:40;19.07;;;16.70;;
8323;SDS011;4199;50.802;6.772;2023-05-15T09:59:08;21.67;;;16.80;;
8323;SDS011;4199;50.802;6.772;2023-05-15T10:01:37;19.80;;;17.50;;
8323;SDS011;4199;50.802;6.772;2023-05-15T10:04:04;24.10;;;18.60;;
8323;SDS011;4199;50.802;6.772;2023-05-15T10:06:34;22.47;;;19.23;;
8323;SDS011;4199;50.802;6.772;2023-05-15T10:09:01;24.93;;;18.87;;
8323;SDS011;4199;50.802;6.772;2023-05-15T10:11:33;26.07;;;19.77;;
8323;SDS011;4199;50.802;6.772;2023-05-15T10:14:07;22.80;;;19.00;;
8323;SDS011;4199;50.802;6.772;2023-05-15T10:16:34;21.33;;;17.53;;
8323;SDS011;4199;50.802;6.772;2023-05-15T10:19:11;26.33;;;21.80;;
8323;SDS011;4199;50.802;6.772;2023-05-15T10:21:39;26.37;;;21.27;;
8323;SDS011;4199;50.802;6.772;2023-05-15T10:24:06;25.00;;;20.10;;
8323;SDS011;4199;50.802;6.772;2023-05-15T10:26:36;24.53;;;19.33;;
8323;SDS011;4199;50.802;6.772;2023-05-15T10:29:13;25.90;;;21.20;;
8323;SDS011;4199;50.802;6.772;2023-05-15T10:31:40;25.03;;;21.20;;
8323;SDS011;4199;50.802;6.772;2023-05-15T10:34:07;23.77;;;19.67;;
8323;SDS011;4199;50.802;6.772;2023-05-15T10:36:34;23.07;;;18.67;;
8323;SDS011;4199;50.802;6.772;2023-05-15T10:39:01;23.27;;;20.70;;
8323;SDS011;4199;50.802;6.772;2023-05-15T10:41:28;22.33;;;19.63;;
8323;SDS011;4199;50.802;6.772;2023-05-15T10:43:58;24.80;;;18.50;;
8323;SDS011;4199;50.802;6.772;2023-05-15T10:46:25;23.67;;;20.90;;
8323;SDS011;4199;50.802;6.772;2023-05-15T10:48:52;26.33;;;22.17;;
8323;SDS011;4199;50.802;6.772;2023-05-15T10:51:26;25.00;;;20.50;;
8323;SDS011;4199;50.802;6.772;2023-05-15T10:53:53;23.87;;;19.73;;
8323;SDS011;4199;50.802;6.772;2023-05-15T10:56:20;19.80;;;17.07;;
8323;SDS011;4199;50.802;6.772;2023-05-15T10:58:47;22.57;;;19.27;;
8323;SDS011;4199;50.802;6.772;2023-05-15T11:01:29;20.70;;;18.30;;
8323;SDS011;4199;50.802;6.772;2023-05-15T11:06:40;20.60;;;16.50;;
8323;SDS011;4199;50.802;6.772;2023-05-15T11:09:31;22.93;;;17.67;;
8323;SDS011;4199;50.802;6.772;2023-05-15T11:11:59;19.97;;;16.90;;
8323;SDS011;4199;50.802;6.772;2023-05-15T11:14:26;18.23;;;15.93;;
8323;SDS011;4199;50.802;6.772;2023-05-15T11:19:23;19.77;;;15.03;;
8323;SDS011;4199;50.802;6.772;2023-05-15T11:22:00;19.67;;;15.67;;
8323;SDS011;4199;50.802;6.772;2023-05-15T11:24:30;20.07;;;14.60;;
8323;SDS011;4199;50.802;6.772;2023-05-15T11:27:00;22.23;;;15.63;;
8323;SDS011;4199;50.802;6.772;2023-05-15T11:29:27;21.10;;;17.27;;
8323;SDS011;4199;50.802;6.772;2023-05-15T11:31:53;19.33;;;16.13;;
8323;SDS011;4199;50.802;6.772;2023-05-15T11:34:33;13.83;;;11.67;;
8323;SDS011;4199;50.802;6.772;2023-05-15T11:36:59;14.53;;;11.53;;
8323;SDS011;4199;50.802;6.772;2023-05-15T11:39:26;14.27;;;11.53;;
8323;SDS011;4199;50.802;6.772;2023-05-15T11:41:53;14.27;;;11.03;;
8323;SDS011;4199;50.802;6.772;2023-05-15T11:44:20;12.93;;;9.63;;
8323;SDS011;4199;50.802;6.772;2023-05-15T11:46:47;12.27;;;7.90;;
8323;SDS011;4199;50.802;6.772;2023-05-15T11:49:13;12.83;;;9.80;;
8323;SDS011;4199;50.802;6.772;2023-05-15T11:51:40;14.70;;;9.70;;
8323;SDS011;4199;50.802;6.772;2023-05-15T11:54:09;11.23;;;9.60;;
8323;SDS011;4199;50.802;6.772;2023-05-15T11:56:39;17.93;;;10.73;;
8323;SDS011;4199;50.802;6.772;2023-05-15T11:59:06;11.27;;;9.30;;
8323;SDS011;4199;50.802;6.772;2023-05-15T12:01:41;11.27;;;9.47;;
8323;SDS011;4199;50.802;6.772;2023-05-15T12:04:14;12.77;;;9.33;;
8323;SDS011;4199;50.802;6.772;2023-05-15T12:06:41;11.57;;;8.97;;
8323;SDS011;4199;50.802;6.772;2023-05-15T12:09:13;12.60;;;9.70;;
8323;SDS011;4199;50.802;6.772;2023-05-15T12:11:40;12.53;;;10.20;;
8323;SDS011;4199;50.802;6.772;2023-05-15T12:14:09;15.00;;;10.40;;
8323;SDS011;4199;50.802;6.772;2023-05-15T12:16:36;14.77;;;11.87;;
8323;SDS011;4199;50.802;6.772;2023-05-15T12:19:02;14.30;;;12.80;;
8323;SDS011;4199;50.802;6.772;2023-05-15T12:21:29;16.57;;;13.03;;
8323;SDS011;4199;50.802;6.772;2023-05-15T12:23:56;16.47;;;13.40;;
8323;SDS011;4199;50.802;6.772;2023-05-15T12:26:25;15.27;;;12.70;;
8323;SDS011;4199;50.802;6.772;2023-05-15T12:28:53;17.93;;;13.50;;
8323;SDS011;4199;50.802;6.772;2023-05-15T12:31:19;19.10;;;14.50;;
8323;SDS011;4199;50.802;6.772;2023-05-15T12:33:46;18.00;;;14.53;;
8323;SDS011;4199;50.802;6.772;2023-05-15T12:36:12;19.27;;;14.97;;
8323;SDS011;4199;50.802;6.772;2023-05-15T12:38:39;15.23;;;13.60;;
8323;SDS011;4199;50.802;6.772;2023-05-15T12:41:05;22.70;;;15.43;;
8323;SDS011;4199;50.802;6.772;2023-05-15T12:43:35;18.57;;;14.60;;
8323;SDS011;4199;50.802;6.772;2023-05-15T12:46:02;16.63;;;14.83;;
8323;SDS011;4199;50.802;6.772;2023-05-15T12:48:29;14.77;;;13.07;;
8323;SDS011;4199;50.802;6.772;2023-05-15T12:50:56;16.03;;;13.53;;
8323;SDS011;4199;50.802;6.772;2023-05-15T12:53:30;16.60;;;13.50;;
8323;SDS011;4199;50.802;6.772;2023-05-15T12:55:56;13.73;;;11.87;;
8323;SDS011;4199;50.802;6.772;2023-05-15T12:58:23;16.90;;;12.60;;
8323;SDS011;4199;50.802;6.772;2023-05-15T13:00:49;15.35;;;12.85;;
8323;SDS011;4199;50.802;6.772;2023-05-15T13:03:18;16.23;;;12.80;;
8323;SDS011;4199;50.802;6.772;2023-05-15T13:05:45;18.55;;;13.77;;
8323;SDS011;4199;50.802;6.772;2023-05-15T13:08:15;17.23;;;13.73;;
8323;SDS011;4199;50.802;6.772;2023-05-15T13:10:42;19.33;;;13.20;;
8323;SDS011;4199;50.802;6.772;2023-05-15T13:13:09;14.85;;;12.68;;
8323;SDS011;4199;50.802;6.772;2023-05-15T13:15:39;14.27;;;12.37;;
8323;SDS011;4199;50.802;6.772;2023-05-15T13:18:10;13.55;;;12.02;;
8323;SDS011;4199;50.802;6.772;2023-05-15T13:20:39;15.53;;;13.00;;
8323;SDS011;4199;50.802;6.772;2023-05-15T13:23:06;16.93;;;12.77;;
8323;SDS011;4199;50.802;6.772;2023-05-15T13:25:32;13.43;;;12.05;;
8323;SDS011;4199;50.802;6.772;2023-05-15T13:27:59;15.77;;;13.43;;
8323;SDS011;4199;50.802;6.772;2023-05-15T13:30:29;15.90;;;13.03;;
8323;SDS011;4199;50.802;6.772;2023-05-15T13:32:55;16.23;;;13.95;;
8323;SDS011;4199;50.802;6.772;2023-05-15T13:35:22;14.68;;;12.93;;
8323;SDS011;4199;50.802;6.772;2023-05-15T13:37:48;14.68;;;12.70;;
8323;SDS011;4199;50.802;6.772;2023-05-15T13:40:15;17.23;;;13.20;;
8323;SDS011;4199;50.802;6.772;2023-05-15T13:42:42;15.65;;;13.35;;
8323;SDS011;4199;50.802;6.772;2023-05-15T13:45:10;14.85;;;11.85;;
8323;SDS011;4199;50.802;6.772;2023-05-15T13:47:36;13.90;;;12.40;;
8323;SDS011;4199;50.802;6.772;2023-05-15T13:50:06;15.57;;;11.60;;
8323;SDS011;4199;50.802;6.772;2023-05-15T13:52:33;13.80;;;12.15;;
8323;SDS011;4199;50.802;6.772;2023-05-15T13:55:00;15.73;;;13.15;;
8323;SDS011;4199;50.802;6.772;2023-05-15T13:57:26;16.20;;;12.63;;
8323;SDS011;4199;50.802;6.772;2023-05-15T13:59:52;13.27;;;11.88;;
8323;SDS011;4199;50.802;6.772;2023-05-15T14:02:20;14.98;;;10.98;;
8323;SDS011;4199;50.802;6.772;2023-05-15T14:04:48;12.48;;;11.15;;
8323;SDS011;4199;50.802;6.772;2023-05-15T14:07:14;12.98;;;10.57;;
8323;SDS011;4199;50.802;6.772;2023-05-15T14:09:41;14.10;;;10.90;;
8323;SDS011;4199;50.802;6.772;2023-05-15T14:12:07;12.43;;;11.13;;
8323;SDS011;4199;50.802;6.772;2023-05-15T14:14:34;12.07;;;9.80;;
8323;SDS011;4199;50.802;6.772;2023-05-15T14:17:01;10.65;;;9.55;;
8323;SDS011;4199;50.802;6.772;2023-05-15T14:19:27;10.80;;;9.18;;
8323;SDS011;4199;50.802;6.772;2023-05-15T14:21:54;15.63;;;12.32;;
8323;SDS011;4199;50.802;6.772;2023-05-15T14:24:20;18.98;;;14.52;;
8323;SDS011;4199;50.802;6.772;2023-05-15T14:26:46;22.67;;;18.63;;
8323;SDS011;4199;50.802;6.772;2023-05-15T14:29:13;17.25;;;14.82;;
8323;SDS011;4199;50.802;6.772;2023-05-15T14:31:40;18.65;;;16.15;;
8323;SDS011;4199;50.802;6.772;2023-05-15T14:34:07;17.13;;;14.48;;
8323;SDS011;4199;50.802;6.772;2023-05-15T14:36:34;17.02;;;15.25;;
8323;SDS011;4199;50.802;6.772;2023-05-15T14:39:00;15.95;;;13.60;;
8323;SDS011;4199;50.802;6.772;2023-05-15T14:41:27;16.30;;;14.70;;
8323;SDS011;4199;50.802;6.772;2023-05-15T14:43:53;15.45;;;13.85;;
8323;SDS011;4199;50.802;6.772;2023-05-15T14:46:19;16.60;;;14.73;;
8323;SDS011;4199;50.802;6.772;2023-05-15T14:48:46;15.60;;;13.77;;
8323;SDS011;4199;50.802;6.772;2023-05-15T14:51:12;22.60;;;12.90;;
8323;SDS011;4199;50.802;6.772;2023-05-15T14:53:39;17.17;;;13.10;;
8323;SDS011;4199;50.802;6.772;2023-05-15T14:56:05;15.13;;;13.13;;
8323;SDS011;4199;50.802;6.772;2023-05-15T14:58:31;14.38;;;12.38;;
8323;SDS011;4199;50.802;6.772;2023-05-15T15:00:57;15.43;;;11.40;;
8323;SDS011;4199;50.802;6.772;2023-05-15T15:03:24;14.13;;;12.00;;
8323;SDS011;4199;50.802;6.772;2023-05-15T15:05:54;13.98;;;11.35;;